createdAt,value
2022-11-15T00:01:27.515Z,14.56
2022-11-15T00:04:16.013Z,14.60
2022-11-15T00:07:03.090Z,14.45
2022-11-15T00:09:50.638Z,14.55
2022-11-15T00:12:37.611Z,14.40
2022-11-15T00:15:24.638Z,14.44
2022-11-15T00:18:15.285Z,14.51
2022-11-15T00:21:08.715Z,14.62
2022-11-15T00:23:55.856Z,14.50
2022-11-15T00:26:42.925Z,14.69
2022-11-15T00:29:29.483Z,14.49
2022-11-15T00:32:16.559Z,14.52
2022-11-15T00:35:03.299Z,14.61
2022-11-15T00:37:51.995Z,14.22
2022-11-15T00:40:38.815Z,14.51
2022-11-15T00:43:26.266Z,14.60
2022-11-15T00:46:13.469Z,14.66
2022-11-15T00:49:01.260Z,14.68
2022-11-15T00:51:48.006Z,14.72
2022-11-15T00:54:36.698Z,14.33
2022-11-15T00:57:23.830Z,14.49
2022-11-15T01:00:11.739Z,14.38
2022-11-15T01:02:58.506Z,14.49
2022-11-15T01:05:45.974Z,14.57
2022-11-15T01:08:33.371Z,14.59
2022-11-15T01:11:22.120Z,14.54
2022-11-15T01:14:09.246Z,14.48
2022-11-15T01:16:56.718Z,14.45
2022-11-15T01:19:43.358Z,14.64
2022-11-15T01:22:30.777Z,14.70
2022-11-15T01:25:17.610Z,14.74
2022-11-15T01:28:06.582Z,14.29
2022-11-15T01:30:53.463Z,14.53
2022-11-15T01:33:40.587Z,14.66
2022-11-15T01:36:27.396Z,14.73
2022-11-15T01:39:14.564Z,14.75
2022-11-15T01:42:01.357Z,14.47
2022-11-15T01:44:51.856Z,14.56
2022-11-15T01:47:42.495Z,14.58
2022-11-15T01:50:33.723Z,14.67
2022-11-15T01:53:23.613Z,14.71
2022-11-15T01:56:14.801Z,14.71
2022-11-15T01:59:06.013Z,14.76
2022-11-15T02:01:55.250Z,14.77
2022-11-15T02:04:44.246Z,14.78
2022-11-15T02:07:34.123Z,14.81
2022-11-15T02:10:23.486Z,14.77
2022-11-15T02:13:12.136Z,14.89
2022-11-15T02:16:11.562Z,15.03
2022-11-15T02:19:10.740Z,15.08
2022-11-15T02:22:07.270Z,15.11
2022-11-15T02:25:06.520Z,15.12
2022-11-15T02:28:12.881Z,15.16
2022-11-15T02:31:07.396Z,15.04
2022-11-15T02:34:02.652Z,15.08
2022-11-15T02:37:01.834Z,15.07
2022-11-15T02:39:53.814Z,14.94
2022-11-15T02:43:08.429Z,14.85
2022-11-15T02:46:02.225Z,14.84
2022-11-15T02:48:51.908Z,14.82
2022-11-15T02:51:39.484Z,14.89
2022-11-15T02:54:28.267Z,14.93
2022-11-15T02:57:20.736Z,14.97
2022-11-15T03:00:10.305Z,14.92
2022-11-15T03:03:15.989Z,15.02
2022-11-15T03:06:16.389Z,15.06
2022-11-15T03:09:10.518Z,15.04
2022-11-15T03:12:03.396Z,14.96
2022-11-15T03:14:56.782Z,15.07
2022-11-15T03:17:51.291Z,15.05
2022-11-15T03:20:39.010Z,15.09
2022-11-15T03:23:31.589Z,14.99
2022-11-15T03:26:23.512Z,14.97
2022-11-15T03:29:16.035Z,15.00
2022-11-15T03:32:08.678Z,15.01
2022-11-15T03:35:00.823Z,14.99
2022-11-15T03:37:53.319Z,14.92
2022-11-15T03:40:44.346Z,14.88
2022-11-15T03:43:38.404Z,14.94
2022-11-15T03:46:33.866Z,14.91
2022-11-15T03:49:27.424Z,14.93
2022-11-15T03:52:14.477Z,14.80
2022-11-15T03:55:03.844Z,14.79
2022-11-15T03:57:55.733Z,14.74
2022-11-15T04:00:42.673Z,14.62
2022-11-15T04:03:30.795Z,14.65
2022-11-15T04:06:17.809Z,14.70
2022-11-15T04:09:05.324Z,14.58
2022-11-15T04:11:51.995Z,14.64
2022-11-15T04:15:00.694Z,14.71
2022-11-15T04:17:49.871Z,14.71
2022-11-15T04:20:54.528Z,14.68
2022-11-15T04:23:59.016Z,14.65
2022-11-15T04:26:46.519Z,14.70
2022-11-15T04:29:39.041Z,14.70
2022-11-15T04:32:27.789Z,14.65
2022-11-15T04:35:14.655Z,14.65
2022-11-15T04:38:03.714Z,14.61
2022-11-15T04:40:50.384Z,14.64
2022-11-15T04:43:37.951Z,14.54
2022-11-15T04:46:25.712Z,14.54
2022-11-15T04:49:14.223Z,14.59
2022-11-15T04:52:01.502Z,14.65
2022-11-15T04:54:49.071Z,14.62
2022-11-15T04:57:35.738Z,14.71
2022-11-15T05:00:22.995Z,14.65
2022-11-15T05:03:29.097Z,14.76
2022-11-15T05:06:18.151Z,14.65
2022-11-15T05:09:05.435Z,14.53
2022-11-15T05:11:52.774Z,14.47
2022-11-15T05:14:39.607Z,14.47
2022-11-15T05:17:26.870Z,14.40
2022-11-15T05:20:14.683Z,14.34
2022-11-15T05:23:03.695Z,14.36
2022-11-15T05:25:50.542Z,14.40
2022-11-15T05:28:38.756Z,14.36
2022-11-15T05:31:26.763Z,14.22
2022-11-15T05:34:14.107Z,14.02
2022-11-15T05:37:01.694Z,13.98
2022-11-15T05:39:50.030Z,13.98
2022-11-15T05:42:36.955Z,13.94
2022-11-15T05:45:27.063Z,14.12
2022-11-15T05:48:15.526Z,14.03
2022-11-15T05:51:04.093Z,14.22
2022-11-15T05:53:52.493Z,14.27
2022-11-15T05:56:41.470Z,14.35
2022-11-15T05:59:31.771Z,14.28
2022-11-15T06:02:18.998Z,14.15
2022-11-15T06:05:06.290Z,14.10
2022-11-15T06:07:53.610Z,14.17
2022-11-15T06:10:40.781Z,14.14
2022-11-15T06:13:29.553Z,14.08
2022-11-15T06:16:16.795Z,14.09
2022-11-15T06:19:03.944Z,14.25
2022-11-15T06:21:51.148Z,14.32
2022-11-15T06:24:38.570Z,14.34
2022-11-15T06:27:25.374Z,14.40
2022-11-15T06:30:14.154Z,14.51
2022-11-15T06:33:02.868Z,14.56
2022-11-15T06:35:49.854Z,14.57
2022-11-15T06:38:37.703Z,14.66
2022-11-15T06:41:25.117Z,14.68
2022-11-15T06:44:12.326Z,14.75
2022-11-15T06:47:00.791Z,14.82
2022-11-15T06:49:47.605Z,14.88
2022-11-15T06:52:35.263Z,14.90
2022-11-15T06:55:22.224Z,14.99
2022-11-15T06:58:09.735Z,15.02
2022-11-15T07:01:02.426Z,15.17
2022-11-15T07:03:51.456Z,15.12
2022-11-15T07:06:38.266Z,15.22
2022-11-15T07:09:25.574Z,15.36
2022-11-15T07:12:12.534Z,15.46
2022-11-15T07:14:59.713Z,15.42
2022-11-15T07:17:46.431Z,15.54
2022-11-15T07:20:35.314Z,15.68
2022-11-15T07:23:22.195Z,15.65
2022-11-15T07:26:09.931Z,15.56
2022-11-15T07:28:56.816Z,15.56
2022-11-15T07:31:44.068Z,15.70
2022-11-15T07:34:30.951Z,15.72
2022-11-15T07:37:19.796Z,15.76
2022-11-15T07:40:07.850Z,15.82
2022-11-15T07:43:00.549Z,15.79
2022-11-15T07:45:48.326Z,15.87
2022-11-15T07:48:44.026Z,16.01
2022-11-15T07:51:32.000Z,16.19
2022-11-15T07:54:21.285Z,16.27
2022-11-15T07:57:10.253Z,16.36
2022-11-15T07:59:58.220Z,16.52
2022-11-15T08:02:45.892Z,16.56
2022-11-15T08:05:33.922Z,16.58
2022-11-15T08:08:21.225Z,16.67
2022-11-15T08:11:10.066Z,16.77
2022-11-15T08:13:57.291Z,16.79
2022-11-15T08:16:44.884Z,16.75
2022-11-15T08:19:31.974Z,16.70
2022-11-15T08:22:19.754Z,16.82
2022-11-15T08:25:07.220Z,16.88
2022-11-15T08:27:59.663Z,17.04
2022-11-15T08:30:46.917Z,17.03
2022-11-15T08:33:37.502Z,17.04
2022-11-15T08:36:24.186Z,17.22
2022-11-15T08:39:13.516Z,17.31
2022-11-15T08:42:01.408Z,17.47
2022-11-15T08:44:50.511Z,17.45
2022-11-15T08:47:37.751Z,17.48
2022-11-15T08:50:25.528Z,17.68
2022-11-15T08:53:14.899Z,17.72
2022-11-15T08:56:02.711Z,17.81
2022-11-15T08:58:49.679Z,17.96
2022-11-15T09:01:38.246Z,18.05
2022-11-15T09:04:26.348Z,18.12
2022-11-15T09:07:13.889Z,18.14
2022-11-15T09:10:01.502Z,18.12
2022-11-15T09:12:49.621Z,18.17
2022-11-15T09:15:37.001Z,18.21
2022-11-15T09:18:25.729Z,18.23
2022-11-15T09:21:13.303Z,18.13
2022-11-15T09:24:00.873Z,18.17
2022-11-15T09:26:48.107Z,18.21
2022-11-15T09:29:35.909Z,18.33
2022-11-15T09:32:23.880Z,18.47
2022-11-15T09:35:12.598Z,18.63
2022-11-15T09:38:00.378Z,18.64
2022-11-15T09:41:08.220Z,18.95
2022-11-15T09:44:08.866Z,19.09
2022-11-15T09:47:07.364Z,19.23
2022-11-15T09:50:03.286Z,19.36
2022-11-15T09:52:40.339Z,19.51
2022-11-15T09:55:11.975Z,19.48
2022-11-15T09:57:47.680Z,19.55
2022-11-15T10:03:14.488Z,19.72
2022-11-15T10:05:45.365Z,19.74
2022-11-15T10:08:34.103Z,19.66
2022-11-15T10:11:35.549Z,19.58
2022-11-15T10:13:58.681Z,19.66
2022-11-15T10:16:57.874Z,19.91
2022-11-15T10:19:34.564Z,19.75
2022-11-15T10:22:20.103Z,19.83
2022-11-15T10:24:52.899Z,19.83
2022-11-15T10:27:22.076Z,19.92
2022-11-15T10:29:52.601Z,20.10
2022-11-15T10:32:23.289Z,20.09
2022-11-15T10:34:52.532Z,20.12
2022-11-15T10:37:31.456Z,20.31
2022-11-15T10:40:22.732Z,20.34
2022-11-15T10:43:07.400Z,20.54
2022-11-15T10:45:36.307Z,20.59
2022-11-15T10:48:27.523Z,20.85
2022-11-15T10:50:57.115Z,20.79
2022-11-15T10:53:33.590Z,20.83
2022-11-15T10:56:09.175Z,20.84
2022-11-15T10:58:43.390Z,20.82
2022-11-15T11:01:16.239Z,20.83
2022-11-15T11:03:46.696Z,20.77
2022-11-15T11:06:17.731Z,20.75
2022-11-15T11:08:57.815Z,20.92
2022-11-15T11:11:48.125Z,21.03
2022-11-15T11:14:28.109Z,20.84
2022-11-15T11:17:06.906Z,20.98
2022-11-15T11:20:01.529Z,21.07
2022-11-15T11:22:41.216Z,20.95
2022-11-15T11:25:25.219Z,21.02
2022-11-15T11:28:11.365Z,21.03
2022-11-15T11:30:51.400Z,20.99
2022-11-15T11:33:24.256Z,20.98
2022-11-15T11:36:05.996Z,21.06
2022-11-15T11:38:45.646Z,21.03
2022-11-15T11:41:26.568Z,20.97
2022-11-15T11:44:09.543Z,20.96
2022-11-15T11:46:54.168Z,20.95
2022-11-15T11:49:30.373Z,20.74
2022-11-15T11:52:05.085Z,20.73
2022-11-15T11:54:42.052Z,20.70
2022-11-15T11:57:19.253Z,20.67
2022-11-15T11:59:55.479Z,20.53
2022-11-15T12:02:36.749Z,20.44
2022-11-15T12:05:15.457Z,20.33
2022-11-15T12:07:46.709Z,20.23
2022-11-15T12:10:23.050Z,20.24
2022-11-15T12:13:01.393Z,20.20
2022-11-15T12:15:37.685Z,20.15
2022-11-15T12:18:06.421Z,20.03
2022-11-15T12:20:41.835Z,20.06
2022-11-15T12:23:18.009Z,20.11
2022-11-15T12:25:52.578Z,20.09
2022-11-15T12:28:33.532Z,20.14
2022-11-15T12:31:08.286Z,20.16
2022-11-15T12:33:40.718Z,20.17
2022-11-15T12:36:13.465Z,20.20
2022-11-15T12:38:57.398Z,20.29
2022-11-15T12:41:28.219Z,20.16
2022-11-15T12:43:58.521Z,20.15
2022-11-15T12:47:03.568Z,20.33
2022-11-15T12:49:46.525Z,20.29
2022-11-15T12:52:15.606Z,20.16
2022-11-15T12:55:25.875Z,20.38
2022-11-15T12:57:54.858Z,20.10
2022-11-15T13:00:41.540Z,20.25
2022-11-15T13:03:31.104Z,20.27
2022-11-15T13:06:07.564Z,20.06
2022-11-15T13:08:48.341Z,20.12
2022-11-15T13:11:59.528Z,20.23
2022-11-15T13:14:49.945Z,20.24
2022-11-15T13:17:38.684Z,20.24
2022-11-15T13:20:22.865Z,20.32
2022-11-15T13:22:53.423Z,20.17
2022-11-15T13:25:38.393Z,20.34
2022-11-15T13:28:20.623Z,20.35
2022-11-15T13:30:54.110Z,20.33
2022-11-15T13:33:25.893Z,20.34
2022-11-15T13:35:59.008Z,20.29
2022-11-15T13:38:30.564Z,20.27
2022-11-15T13:41:01.470Z,20.13
2022-11-15T13:43:36.232Z,20.10
2022-11-15T13:46:12.558Z,19.89
2022-11-15T13:48:41.270Z,19.78
2022-11-15T13:51:22.298Z,19.75
2022-11-15T13:53:55.821Z,19.62
2022-11-15T13:56:25.423Z,19.54
2022-11-15T13:58:55.401Z,19.57
2022-11-15T14:01:25.233Z,19.53
2022-11-15T14:03:58.330Z,19.50
2022-11-15T14:06:30.836Z,19.45
2022-11-15T14:09:26.650Z,19.56
2022-11-15T14:11:57.144Z,19.44
2022-11-15T14:14:27.249Z,19.43
2022-11-15T14:16:57.584Z,19.44
2022-11-15T14:19:42.447Z,19.54
2022-11-15T14:22:22.905Z,19.51
2022-11-15T14:25:18.763Z,19.40
2022-11-15T14:28:12.251Z,19.40
2022-11-15T14:30:41.733Z,19.22
2022-11-15T14:33:30.520Z,19.37
2022-11-15T14:36:00.538Z,19.16
2022-11-15T14:38:30.983Z,19.11
2022-11-15T14:40:59.826Z,19.07
2022-11-15T14:43:28.587Z,19.02
2022-11-15T14:45:57.365Z,18.98
2022-11-15T14:48:26.226Z,18.92
2022-11-15T14:50:54.892Z,18.89
2022-11-15T14:53:23.790Z,18.85
2022-11-15T14:55:53.640Z,18.81
2022-11-15T14:58:22.649Z,18.78
2022-11-15T15:00:51.728Z,18.78
2022-11-15T15:03:20.600Z,18.80
2022-11-15T15:05:49.107Z,18.83
2022-11-15T15:08:18.077Z,18.82
2022-11-15T15:10:47.540Z,18.84
2022-11-15T15:13:20.475Z,18.88
2022-11-15T15:15:50.372Z,18.86
2022-11-15T15:18:21.050Z,18.85
2022-11-15T15:20:57.870Z,18.92
2022-11-15T15:23:30.421Z,18.87
2022-11-15T15:25:59.819Z,18.85
2022-11-15T15:28:34.344Z,18.81
2022-11-15T15:31:03.718Z,18.75
2022-11-15T15:33:32.569Z,18.73
2022-11-15T15:36:01.277Z,18.63
2022-11-15T15:38:30.450Z,18.68
2022-11-15T15:41:00.645Z,18.47
2022-11-15T15:43:30.871Z,18.39
2022-11-15T15:45:59.686Z,18.46
2022-11-15T15:48:28.874Z,18.46
2022-11-15T15:50:57.493Z,18.49
2022-11-15T15:53:26.385Z,18.37
2022-11-15T15:55:57.993Z,18.46
2022-11-15T15:58:27.374Z,18.44
2022-11-15T16:00:57.329Z,18.51
2022-11-15T16:03:26.421Z,18.51
2022-11-15T16:05:55.425Z,17.44
2022-11-15T16:08:27.528Z,17.00
2022-11-15T16:10:56.219Z,17.11
2022-11-15T16:13:25.313Z,17.51
2022-11-15T16:15:58.199Z,17.70
2022-11-15T16:18:27.385Z,17.75
2022-11-15T16:20:57.721Z,17.79
2022-11-15T16:23:26.640Z,17.87
2022-11-15T16:25:57.206Z,17.92
2022-11-15T16:28:27.981Z,17.95
2022-11-15T16:31:04.712Z,18.01
2022-11-15T16:33:34.389Z,17.93
2022-11-15T16:36:03.569Z,17.58
2022-11-15T16:38:33.228Z,17.25
2022-11-15T16:41:01.908Z,17.17
2022-11-15T16:43:30.740Z,17.21
2022-11-15T16:45:59.741Z,17.33
2022-11-15T16:48:30.704Z,17.42
2022-11-15T16:51:00.354Z,17.40
2022-11-15T16:53:29.567Z,17.38
2022-11-15T16:55:58.628Z,17.44
2022-11-15T16:58:27.591Z,17.46
2022-11-15T17:00:58.386Z,17.48
2022-11-15T17:03:27.788Z,17.47
2022-11-15T17:06:00.789Z,17.51
2022-11-15T17:08:30.191Z,17.50
2022-11-15T17:10:59.095Z,17.38
2022-11-15T17:13:27.898Z,17.24
2022-11-15T17:16:06.020Z,17.18
2022-11-15T17:18:35.460Z,16.94
2022-11-15T17:21:10.222Z,17.06
2022-11-15T17:23:39.264Z,16.99
2022-11-15T17:26:28.339Z,16.79
2022-11-15T17:28:57.889Z,16.67
2022-11-15T17:31:27.237Z,16.78
2022-11-15T17:33:56.820Z,16.83
2022-11-15T17:36:27.335Z,16.86
2022-11-15T17:38:59.510Z,16.85
2022-11-15T17:41:29.335Z,16.85
2022-11-15T17:43:59.470Z,16.42
2022-11-15T17:46:29.166Z,16.57
2022-11-15T17:48:58.980Z,16.64
2022-11-15T17:51:28.973Z,16.63
2022-11-15T17:53:57.909Z,16.59
2022-11-15T17:56:28.188Z,16.64
2022-11-15T17:58:59.130Z,16.57
2022-11-15T18:01:30.309Z,16.58
2022-11-15T18:04:02.098Z,16.56
2022-11-15T18:06:34.320Z,16.59
2022-11-15T18:09:04.534Z,16.55
2022-11-15T18:11:35.112Z,16.55
2022-11-15T18:14:06.297Z,16.57
2022-11-15T18:16:36.665Z,16.55
2022-11-15T18:19:09.120Z,16.48
2022-11-15T18:21:56.318Z,16.34
2022-11-15T18:24:28.178Z,16.38
2022-11-15T18:26:59.066Z,16.27
2022-11-15T18:29:28.637Z,15.85
2022-11-15T18:31:58.801Z,15.83
2022-11-15T18:34:32.556Z,15.59
2022-11-15T18:37:03.795Z,15.55
2022-11-15T18:39:32.780Z,15.69
2022-11-15T18:42:01.772Z,15.82
2022-11-15T18:44:31.569Z,15.91
2022-11-15T18:47:00.226Z,15.92
2022-11-15T18:49:29.802Z,15.99
2022-11-15T18:52:00.066Z,16.04
2022-11-15T18:54:31.644Z,16.03
2022-11-15T18:57:23.312Z,15.97
2022-11-15T18:59:52.650Z,15.86
2022-11-15T19:02:21.569Z,15.92
2022-11-15T19:04:51.084Z,15.96
2022-11-15T19:07:20.053Z,16.01
2022-11-15T19:09:51.601Z,16.04
2022-11-15T19:12:22.126Z,15.98
2022-11-15T19:15:20.519Z,15.96
2022-11-15T19:17:49.421Z,15.85
2022-11-15T19:20:19.023Z,15.65
2022-11-15T19:22:47.956Z,15.55
2022-11-15T19:25:19.130Z,15.54
2022-11-15T19:27:47.830Z,15.55
2022-11-15T19:30:17.244Z,15.57
2022-11-15T19:32:47.018Z,15.51
2022-11-15T19:35:15.831Z,15.44
2022-11-15T19:37:44.392Z,15.46
2022-11-15T19:40:13.530Z,15.52
2022-11-15T19:42:43.530Z,15.48
2022-11-15T19:45:12.884Z,15.24
2022-11-15T19:47:41.644Z,14.98
2022-11-15T19:50:11.569Z,15.04
2022-11-15T19:52:43.803Z,15.13
2022-11-15T19:55:14.294Z,15.22
2022-11-15T19:57:44.537Z,15.30
2022-11-15T20:00:15.031Z,15.36
2022-11-15T20:02:43.589Z,15.42
2022-11-15T20:05:18.161Z,15.47
2022-11-15T20:07:49.557Z,15.51
2022-11-15T20:10:38.815Z,15.48
2022-11-15T20:13:08.718Z,15.51
2022-11-15T20:15:37.487Z,15.53
2022-11-15T20:18:06.190Z,15.52
2022-11-15T20:20:35.732Z,15.52
2022-11-15T20:23:04.184Z,15.52
2022-11-15T20:25:33.160Z,15.18
2022-11-15T20:28:01.504Z,14.92
2022-11-15T20:30:31.758Z,14.81
2022-11-15T20:33:00.288Z,14.88
2022-11-15T20:35:29.572Z,14.85
2022-11-15T20:37:58.050Z,14.89
2022-11-15T20:40:26.992Z,14.95
2022-11-15T20:42:55.555Z,14.98
2022-11-15T20:45:24.922Z,14.86
2022-11-15T20:47:57.724Z,14.69
2022-11-15T20:50:42.137Z,14.33
2022-11-15T20:53:12.764Z,14.24
2022-11-15T20:55:45.218Z,13.76
2022-11-15T20:58:13.858Z,13.45
2022-11-15T21:00:45.165Z,12.91
2022-11-15T21:03:16.444Z,12.10
2022-11-15T21:05:49.573Z,12.22
2022-11-15T21:09:03.530Z,12.83
2022-11-15T21:12:10.429Z,12.46
2022-11-15T21:14:40.059Z,11.76
2022-11-15T21:19:55.664Z,11.35
2022-11-15T21:22:32.574Z,11.87
2022-11-15T21:25:02.581Z,12.33
2022-11-15T21:27:34.748Z,12.33
2022-11-15T21:30:05.470Z,11.73
2022-11-15T21:32:35.119Z,11.56
2022-11-15T21:35:06.398Z,11.52
2022-11-15T21:37:35.987Z,11.78
2022-11-15T21:40:07.133Z,11.93
2022-11-15T21:42:36.762Z,11.83
2022-11-15T21:45:06.359Z,12.14
2022-11-15T21:47:35.429Z,12.41
2022-11-15T21:50:06.308Z,12.20
2022-11-15T21:52:36.016Z,12.43
2022-11-15T21:55:06.109Z,12.84
2022-11-15T21:57:35.385Z,13.10
2022-11-15T22:00:23.075Z,13.33
2022-11-15T22:02:52.169Z,13.56
2022-11-15T22:05:25.513Z,13.72
2022-11-15T22:07:54.676Z,13.80
2022-11-15T22:10:23.538Z,13.92
2022-11-15T22:12:52.897Z,13.92
2022-11-15T22:15:42.532Z,14.02
2022-11-15T22:18:13.799Z,14.09
2022-11-15T22:20:45.316Z,14.06
2022-11-15T22:23:14.921Z,14.21
2022-11-15T22:25:44.858Z,14.29
2022-11-15T22:28:14.302Z,14.41
2022-11-15T22:30:43.163Z,14.50
2022-11-15T22:33:12.450Z,14.55
2022-11-15T22:35:41.981Z,14.60
2022-11-15T22:38:12.813Z,14.64
2022-11-15T22:40:42.631Z,14.68
2022-11-15T22:43:13.342Z,14.66
2022-11-15T22:45:49.024Z,14.75
2022-11-15T22:48:18.339Z,14.64
2022-11-15T22:50:46.984Z,14.61
2022-11-15T22:53:17.508Z,14.55
2022-11-15T22:55:50.972Z,14.57
2022-11-15T22:58:20.629Z,14.50
2022-11-15T23:00:53.577Z,14.54
2022-11-15T23:03:23.800Z,14.52
2022-11-15T23:05:52.589Z,14.51
2022-11-15T23:08:24.789Z,14.53
2022-11-15T23:11:10.984Z,14.49
2022-11-15T23:13:40.175Z,14.47
2022-11-15T23:16:24.055Z,14.44
2022-11-15T23:18:55.067Z,14.39
2022-11-15T23:21:42.953Z,14.35
2022-11-15T23:24:15.493Z,14.27
2022-11-15T23:26:45.446Z,14.24
2022-11-15T23:29:16.735Z,14.27
2022-11-15T23:32:03.340Z,14.24
2022-11-15T23:34:33.493Z,14.24
2022-11-15T23:37:02.145Z,14.26
2022-11-15T23:39:32.498Z,14.30
2022-11-15T23:42:05.945Z,14.30
2022-11-15T23:44:38.027Z,14.32
2022-11-15T23:47:06.719Z,14.38
2022-11-15T23:49:35.708Z,14.38
2022-11-15T23:52:04.552Z,14.34
2022-11-15T23:54:34.902Z,14.10
2022-11-15T23:57:03.904Z,13.22
2022-11-15T23:59:32.830Z,12.16
